createdAt,value
2023-03-11T00:01:13.673Z,99779.73
2023-03-11T00:03:42.234Z,99778.27
2023-03-11T00:06:10.626Z,99779.04
2023-03-11T00:08:41.536Z,99774.22
2023-03-11T00:11:10.220Z,99766.36
2023-03-11T00:13:41.568Z,99765.72
2023-03-11T00:16:10.440Z,99763.22
2023-03-11T00:18:40.244Z,99759.41
2023-03-11T00:21:14.682Z,99754.99
2023-03-11T00:23:43.228Z,99757.70
2023-03-11T00:26:12.902Z,99753.05
2023-03-11T00:28:41.486Z,99745.88
2023-03-11T00:31:12.641Z,99744.38
2023-03-11T00:34:00.955Z,99739.73
2023-03-11T00:36:31.903Z,99739.20
2023-03-11T00:39:02.514Z,99729.02
2023-03-11T00:41:31.486Z,99726.13
2023-03-11T00:44:00.448Z,99724.40
2023-03-11T00:46:31.405Z,99720.09
2023-03-11T00:49:00.133Z,99726.36
2023-03-11T00:51:29.637Z,99721.77
2023-03-11T00:53:57.982Z,99718.91
2023-03-11T00:56:26.578Z,99716.55
2023-03-11T00:58:56.205Z,99713.42
2023-03-11T01:01:25.164Z,99710.27
2023-03-11T01:03:53.839Z,99710.95
2023-03-11T01:06:23.465Z,99703.88
2023-03-11T01:08:55.217Z,99691.12
2023-03-11T01:11:23.470Z,99690.49
2023-03-11T01:13:53.202Z,99686.63
2023-03-11T01:16:23.912Z,99682.42
2023-03-11T01:18:53.201Z,99683.80
2023-03-11T01:21:22.019Z,99675.81
2023-03-11T01:23:50.362Z,99676.83
2023-03-11T01:26:18.958Z,99677.73
2023-03-11T01:28:49.112Z,99676.38
2023-03-11T01:31:17.707Z,99679.36
2023-03-11T01:33:47.050Z,99681.79
2023-03-11T01:36:15.388Z,99678.08
2023-03-11T01:38:43.853Z,99674.83
2023-03-11T01:41:12.415Z,99673.91
2023-03-11T01:43:46.730Z,99668.05
2023-03-11T01:46:28.153Z,99659.21
2023-03-11T01:48:58.261Z,99656.42
2023-03-11T01:51:38.773Z,99660.10
2023-03-11T01:54:13.187Z,99656.30
2023-03-11T01:56:43.974Z,99660.80
2023-03-11T01:59:13.053Z,99654.06
2023-03-11T02:02:02.576Z,99652.06
2023-03-11T02:04:32.216Z,99652.74
2023-03-11T02:07:02.912Z,99644.95
2023-03-11T02:09:32.128Z,99639.46
2023-03-11T02:12:02.484Z,99640.31
2023-03-11T02:14:31.704Z,99634.95
2023-03-11T02:17:01.934Z,99633.55
2023-03-11T02:19:33.889Z,99631.23
2023-03-11T02:22:02.981Z,99627.52
2023-03-11T02:24:35.962Z,99621.77
2023-03-11T02:27:12.533Z,99624.38
2023-03-11T02:29:42.511Z,99617.41
2023-03-11T02:32:11.731Z,99619.83
2023-03-11T02:34:43.527Z,99619.22
2023-03-11T02:37:13.095Z,99621.95
2023-03-11T02:39:44.641Z,99617.23
2023-03-11T02:42:22.637Z,99618.24
2023-03-11T02:45:11.060Z,99621.36
2023-03-11T02:47:39.634Z,99611.94
2023-03-11T02:50:11.370Z,99612.71
2023-03-11T02:52:40.092Z,99610.02
2023-03-11T02:55:08.991Z,99605.13
2023-03-11T02:57:39.230Z,99608.21
2023-03-11T03:00:14.286Z,99605.27
2023-03-11T03:02:52.028Z,99605.10
2023-03-11T03:05:21.081Z,99603.40
2023-03-11T03:07:50.664Z,99598.27
2023-03-11T03:10:20.600Z,99592.81
2023-03-11T03:12:56.259Z,99589.23
2023-03-11T03:15:27.073Z,99588.73
2023-03-11T03:17:56.831Z,99590.06
2023-03-11T03:20:30.534Z,99587.55
2023-03-11T03:23:01.642Z,99583.12
2023-03-11T03:25:32.270Z,99582.26
2023-03-11T03:28:05.132Z,99582.55
2023-03-11T03:30:35.496Z,99576.73
2023-03-11T03:33:07.798Z,99573.70
2023-03-11T03:35:40.488Z,99573.40
2023-03-11T03:38:14.083Z,99569.59
2023-03-11T03:40:47.909Z,99559.66
2023-03-11T03:43:18.016Z,99554.38
2023-03-11T03:45:55.779Z,99561.94
2023-03-11T03:48:26.395Z,99566.59
2023-03-11T03:50:56.424Z,99566.78
2023-03-11T03:53:26.168Z,99569.74
2023-03-11T03:55:54.862Z,99566.74
2023-03-11T03:58:25.257Z,99560.06
2023-03-11T04:00:56.200Z,99557.89
2023-03-11T04:03:25.994Z,99559.14
2023-03-11T04:06:14.243Z,99557.75
2023-03-11T04:08:43.649Z,99556.66
2023-03-11T04:11:12.745Z,99553.83
2023-03-11T04:13:41.653Z,99538.59
2023-03-11T04:16:10.300Z,99533.92
2023-03-11T04:18:39.407Z,99533.10
2023-03-11T04:21:09.688Z,99524.95
2023-03-11T04:23:38.891Z,99518.73
2023-03-11T04:26:07.532Z,99527.54
2023-03-11T04:28:37.022Z,99531.79
2023-03-11T04:31:06.989Z,99531.00
2023-03-11T04:33:37.444Z,99517.70
2023-03-11T04:36:10.400Z,99521.07
2023-03-11T04:38:39.464Z,99520.42
2023-03-11T04:41:09.076Z,99526.77
2023-03-11T04:43:42.727Z,99524.63
2023-03-11T04:46:11.185Z,99523.80
2023-03-11T04:48:43.407Z,99523.82
2023-03-11T04:51:11.730Z,99520.08
2023-03-11T04:53:40.842Z,99520.15
2023-03-11T04:56:09.972Z,99517.19
2023-03-11T04:58:39.156Z,99522.15
2023-03-11T05:01:08.475Z,99507.59
2023-03-11T05:03:37.201Z,99504.21
2023-03-11T05:06:06.764Z,99507.36
2023-03-11T05:08:35.392Z,99506.93
2023-03-11T05:11:04.548Z,99503.51
2023-03-11T05:13:34.640Z,99499.06
2023-03-11T05:16:04.220Z,99495.38
2023-03-11T05:18:33.720Z,99500.33
2023-03-11T05:21:06.859Z,99497.60
2023-03-11T05:23:37.087Z,99496.01
2023-03-11T05:26:05.820Z,99494.13
2023-03-11T05:28:34.678Z,99492.79
2023-03-11T05:31:03.695Z,99496.69
2023-03-11T05:33:35.583Z,99501.40
2023-03-11T05:36:05.967Z,99513.61
2023-03-11T05:38:35.762Z,99520.16
2023-03-11T05:41:04.958Z,99513.25
2023-03-11T05:43:33.919Z,99508.31
2023-03-11T05:46:02.389Z,99515.34
2023-03-11T05:48:31.953Z,99506.84
2023-03-11T05:51:00.266Z,99502.75
2023-03-11T05:53:28.968Z,99499.27
2023-03-11T05:55:57.957Z,99496.13
2023-03-11T05:58:28.070Z,99498.09
2023-03-11T06:00:57.690Z,99487.27
2023-03-11T06:03:34.166Z,99494.87
2023-03-11T06:06:02.452Z,99492.63
2023-03-11T06:08:34.642Z,99490.48
2023-03-11T06:11:04.418Z,99486.61
2023-03-11T06:13:36.617Z,99485.73
2023-03-11T06:16:06.147Z,99482.20
2023-03-11T06:18:36.789Z,99481.61
2023-03-11T06:21:06.166Z,99482.62
2023-03-11T06:23:36.259Z,99480.30
2023-03-11T06:26:05.900Z,99481.39
2023-03-11T06:28:40.527Z,99476.10
2023-03-11T06:31:37.397Z,99477.23
2023-03-11T06:34:09.455Z,99479.14
2023-03-11T06:36:37.788Z,99478.46
2023-03-11T06:39:10.311Z,99478.73
2023-03-11T06:41:39.171Z,99473.52
2023-03-11T06:44:08.662Z,99475.02
2023-03-11T06:46:39.860Z,99474.09
2023-03-11T06:49:08.472Z,99477.55
2023-03-11T06:51:38.181Z,99472.20
2023-03-11T06:54:07.481Z,99468.66
2023-03-11T06:56:40.290Z,99471.20
2023-03-11T06:59:09.992Z,99461.98
2023-03-11T07:01:38.366Z,99467.08
2023-03-11T07:04:07.883Z,99462.50
2023-03-11T07:06:37.653Z,99455.52
2023-03-11T07:09:13.725Z,99453.08
2023-03-11T07:11:44.878Z,99448.27
2023-03-11T07:14:16.801Z,99446.06
2023-03-11T07:16:48.482Z,99440.83
2023-03-11T07:19:26.596Z,99436.06
2023-03-11T07:21:54.931Z,99437.31
2023-03-11T07:24:27.254Z,99438.92
2023-03-11T07:26:55.783Z,99432.10
2023-03-11T07:29:24.194Z,99429.89
2023-03-11T07:31:52.982Z,99426.64
2023-03-11T07:34:22.171Z,99424.79
2023-03-11T07:36:55.568Z,99414.67
2023-03-11T07:39:24.149Z,99409.92
2023-03-11T07:41:52.432Z,99407.14
2023-03-11T07:44:21.262Z,99398.82
2023-03-11T07:46:49.456Z,99399.02
2023-03-11T07:49:21.960Z,99390.56
2023-03-11T07:51:51.310Z,99384.50
2023-03-11T07:54:19.944Z,99384.48
2023-03-11T07:56:49.815Z,99379.61
2023-03-11T07:59:18.461Z,99373.24
2023-03-11T08:01:47.545Z,99376.17
2023-03-11T08:04:17.332Z,99371.91
2023-03-11T08:06:46.627Z,99375.99
2023-03-11T08:09:15.290Z,99373.13
2023-03-11T08:11:44.973Z,99373.05
2023-03-11T08:14:13.296Z,99373.25
2023-03-11T08:16:42.517Z,99366.20
2023-03-11T08:19:12.471Z,99368.23
2023-03-11T08:21:40.961Z,99360.08
2023-03-11T08:24:11.184Z,99355.92
2023-03-11T08:26:39.611Z,99350.05
2023-03-11T08:29:11.256Z,99345.61
2023-03-11T08:31:39.766Z,99342.96
2023-03-11T08:34:09.949Z,99339.23
2023-03-11T08:36:38.716Z,99334.77
2023-03-11T08:39:07.229Z,99334.26
2023-03-11T08:41:35.723Z,99328.88
2023-03-11T08:44:04.138Z,99332.70
2023-03-11T08:46:37.290Z,99328.55
2023-03-11T08:49:05.807Z,99326.02
2023-03-11T08:51:34.658Z,99318.98
2023-03-11T08:54:10.226Z,99311.64
2023-03-11T08:56:39.945Z,99311.73
2023-03-11T08:59:08.858Z,99307.50
2023-03-11T09:01:38.140Z,99308.23
2023-03-11T09:04:06.278Z,99309.41
2023-03-11T09:06:44.273Z,99315.33
2023-03-11T09:09:13.055Z,99319.14
2023-03-11T09:11:42.183Z,99327.95
2023-03-11T09:14:11.020Z,99326.30
2023-03-11T09:16:40.076Z,99330.04
2023-03-11T09:19:08.401Z,99333.70
2023-03-11T09:21:37.278Z,99334.36
2023-03-11T09:24:06.885Z,99341.80
2023-03-11T09:26:35.203Z,99339.77
2023-03-11T09:29:03.723Z,99322.42
2023-03-11T09:31:42.096Z,99317.92
2023-03-11T09:34:15.991Z,99303.50
2023-03-11T09:36:44.889Z,99297.52
2023-03-11T09:39:13.724Z,99297.80
2023-03-11T09:41:58.272Z,99297.44
2023-03-11T09:44:27.044Z,99290.42
2023-03-11T09:47:10.530Z,99290.32
2023-03-11T09:49:45.505Z,99274.27
2023-03-11T09:52:36.826Z,99272.73
2023-03-11T09:55:06.181Z,99266.95
2023-03-11T09:57:35.083Z,99260.66
2023-03-11T10:00:04.601Z,99261.83
2023-03-11T10:02:44.910Z,99265.41
2023-03-11T10:05:15.199Z,99256.90
2023-03-11T10:07:48.036Z,99251.43
2023-03-11T10:10:16.322Z,99235.56
2023-03-11T10:12:46.146Z,99235.06
2023-03-11T10:15:17.558Z,99230.77
2023-03-11T10:17:47.657Z,99227.21
2023-03-11T10:20:19.167Z,99225.71
2023-03-11T10:22:51.165Z,99218.10
2023-03-11T10:25:24.522Z,99210.33
2023-03-11T10:27:54.654Z,99210.11
2023-03-11T10:30:36.788Z,99205.20
2023-03-11T10:33:12.792Z,99199.18
2023-03-11T10:35:42.300Z,99193.17
2023-03-11T10:38:22.835Z,99189.39
2023-03-11T10:40:51.885Z,99186.44
2023-03-11T10:43:21.999Z,99182.36
2023-03-11T10:45:53.068Z,99173.27
2023-03-11T10:48:22.056Z,99160.05
2023-03-11T10:51:03.877Z,99151.86
2023-03-11T10:53:33.865Z,99141.35
2023-03-11T10:56:03.004Z,99133.23
2023-03-11T10:58:31.545Z,99129.52
2023-03-11T11:01:06.764Z,99125.05
2023-03-11T11:03:35.529Z,99127.78
2023-03-11T11:06:07.870Z,99122.84
2023-03-11T11:08:36.914Z,99121.36
2023-03-11T11:11:10.765Z,99121.52
2023-03-11T11:13:41.380Z,99119.80
2023-03-11T11:16:16.843Z,99110.98
2023-03-11T11:18:49.352Z,99104.80
2023-03-11T11:21:38.144Z,99101.33
2023-03-11T11:24:18.781Z,99096.36
2023-03-11T11:27:05.223Z,99089.77
2023-03-11T11:29:34.991Z,99088.13
2023-03-11T11:32:19.364Z,99092.37
2023-03-11T11:35:01.152Z,99089.34
2023-03-11T11:37:34.409Z,99089.36
2023-03-11T11:40:11.262Z,99086.09
2023-03-11T11:42:44.681Z,99086.34
2023-03-11T11:45:24.617Z,99084.64
2023-03-11T11:47:54.439Z,99091.81
2023-03-11T11:50:36.205Z,99089.98
2023-03-11T11:53:15.167Z,99076.86
2023-03-11T11:55:50.982Z,99070.07
2023-03-11T11:58:20.416Z,99069.13
2023-03-11T12:01:08.999Z,99066.89
2023-03-11T12:03:37.572Z,99066.88
2023-03-11T12:06:12.887Z,99067.31
2023-03-11T12:09:06.049Z,99065.21
2023-03-11T12:11:37.075Z,99055.36
2023-03-11T12:14:14.748Z,99055.86
2023-03-11T12:16:43.766Z,99055.74
2023-03-11T12:19:12.699Z,99047.77
2023-03-11T12:21:44.496Z,99039.64
2023-03-11T12:24:32.342Z,99039.93
2023-03-11T12:27:02.761Z,99041.39
2023-03-11T12:29:34.857Z,99039.06
2023-03-11T12:32:03.743Z,99033.30
2023-03-11T12:34:33.883Z,99042.58
2023-03-11T12:37:05.111Z,99037.20
2023-03-11T12:39:34.426Z,99044.21
2023-03-11T12:42:22.691Z,99034.27
2023-03-11T12:44:51.784Z,99028.94
2023-03-11T12:47:21.757Z,99025.73
2023-03-11T12:49:52.150Z,99029.45
2023-03-11T12:52:22.570Z,99034.77
2023-03-11T12:54:57.447Z,99018.83
2023-03-11T12:57:27.374Z,99022.66
2023-03-11T13:00:03.024Z,99016.17
2023-03-11T13:02:47.876Z,99009.65
2023-03-11T13:05:16.414Z,99009.06
2023-03-11T13:07:57.428Z,99003.68
2023-03-11T13:10:29.939Z,99003.14
2023-03-11T13:12:58.709Z,99002.48
2023-03-11T13:15:35.645Z,98997.57
2023-03-11T13:18:19.093Z,99001.02
2023-03-11T13:21:02.248Z,98994.88
2023-03-11T13:23:41.026Z,98983.92
2023-03-11T13:26:18.951Z,98976.63
2023-03-11T13:29:00.173Z,98977.54
2023-03-11T13:31:34.927Z,98971.67
2023-03-11T13:34:04.053Z,98965.27
2023-03-11T13:36:36.134Z,98967.36
2023-03-11T13:39:05.854Z,98968.17
2023-03-11T13:41:37.375Z,98970.65
2023-03-11T13:44:30.691Z,98958.25
2023-03-11T13:47:03.101Z,98963.09
2023-03-11T13:49:34.344Z,98955.40
2023-03-11T13:52:07.753Z,98955.52
2023-03-11T13:54:38.745Z,98953.03
2023-03-11T13:57:12.094Z,98950.46
2023-03-11T13:59:40.428Z,98946.56
2023-03-11T14:02:17.196Z,98942.05
2023-03-11T14:04:59.029Z,98939.68
2023-03-11T14:07:32.004Z,98935.19
2023-03-11T14:10:17.903Z,98938.27
2023-03-11T14:12:46.860Z,98925.39
2023-03-11T14:15:17.953Z,98919.90
2023-03-11T14:17:48.880Z,98910.60
2023-03-11T14:20:18.827Z,98912.77
2023-03-11T14:22:47.571Z,98903.38
2023-03-11T14:25:19.864Z,98899.77
2023-03-11T14:27:50.657Z,98898.83
2023-03-11T14:30:24.275Z,98894.52
2023-03-11T14:33:00.101Z,98890.52
2023-03-11T14:35:29.698Z,98885.21
2023-03-11T14:38:02.532Z,98879.98
2023-03-11T14:40:32.435Z,98881.63
2023-03-11T14:43:02.168Z,98885.13
2023-03-11T14:45:33.110Z,98882.77
2023-03-11T14:48:20.594Z,98879.05
2023-03-11T14:50:49.779Z,98876.77
2023-03-11T14:53:18.356Z,98876.83
2023-03-11T14:56:00.428Z,98877.77
2023-03-11T14:58:34.770Z,98877.09
2023-03-11T15:01:14.480Z,98875.08
2023-03-11T15:03:47.018Z,98874.89
2023-03-11T15:06:15.504Z,98870.77
2023-03-11T15:08:44.555Z,98870.84
2023-03-11T15:11:13.487Z,98867.17
2023-03-11T15:13:42.600Z,98861.11
2023-03-11T15:16:29.735Z,98854.46
2023-03-11T15:19:21.250Z,98848.08
2023-03-11T15:21:49.975Z,98850.38
2023-03-11T15:24:23.309Z,98852.79
2023-03-11T15:26:56.667Z,98848.14
2023-03-11T15:29:25.417Z,98855.40
2023-03-11T15:31:53.873Z,98855.06
2023-03-11T15:34:25.560Z,98858.80
2023-03-11T15:36:55.764Z,98857.28
2023-03-11T15:39:30.658Z,98858.02
2023-03-11T15:42:00.176Z,98858.14
2023-03-11T15:44:41.868Z,98853.23
2023-03-11T15:47:15.245Z,98846.65
2023-03-11T15:49:43.669Z,98846.50
2023-03-11T15:52:12.292Z,98838.70
2023-03-11T15:54:47.392Z,98843.17
2023-03-11T15:57:24.901Z,98842.60
2023-03-11T15:59:56.235Z,98843.14
2023-03-11T16:02:29.137Z,98847.13
2023-03-11T16:04:58.220Z,98842.88
2023-03-11T16:07:39.072Z,98843.66
2023-03-11T16:10:08.689Z,98842.17
2023-03-11T16:12:45.221Z,98843.16
2023-03-11T16:15:29.116Z,98847.42
2023-03-11T16:18:04.115Z,98848.88
2023-03-11T16:20:39.477Z,98840.64
2023-03-11T16:23:50.262Z,98841.13
2023-03-11T16:26:21.044Z,98840.69
2023-03-11T16:28:49.638Z,98842.11
2023-03-11T16:31:23.266Z,98840.70
2023-03-11T16:33:53.158Z,98842.16
2023-03-11T16:36:21.666Z,98841.77
2023-03-11T16:38:53.174Z,98828.85
2023-03-11T16:41:22.501Z,98826.00
2023-03-11T16:43:50.913Z,98825.25
2023-03-11T16:46:19.637Z,98821.80
2023-03-11T16:48:48.173Z,98828.70
2023-03-11T16:51:16.716Z,98824.05
2023-03-11T16:53:46.682Z,98826.21
2023-03-11T16:56:15.682Z,98828.06
2023-03-11T16:58:51.840Z,98824.86
2023-03-11T17:01:22.061Z,98827.20
2023-03-11T17:03:52.270Z,98826.80
2023-03-11T17:06:21.072Z,98829.52
2023-03-11T17:08:54.920Z,98822.67
2023-03-11T17:11:23.741Z,98826.01
2023-03-11T17:13:52.375Z,98837.52
2023-03-11T17:16:20.922Z,98833.33
2023-03-11T17:18:50.112Z,98832.76
2023-03-11T17:21:18.782Z,98834.04
2023-03-11T17:23:47.326Z,98834.72
2023-03-11T17:26:16.836Z,98824.66
2023-03-11T17:28:46.388Z,98821.34
2023-03-11T17:31:15.953Z,98819.27
2023-03-11T17:33:44.690Z,98808.77
2023-03-11T17:36:14.805Z,98801.09
2023-03-11T17:38:46.450Z,98789.10
2023-03-11T17:41:17.093Z,98788.05
2023-03-11T17:43:45.768Z,98788.16
2023-03-11T17:46:16.578Z,98790.20
2023-03-11T17:48:46.148Z,98794.42
2023-03-11T17:51:18.974Z,98794.91
2023-03-11T17:53:47.546Z,98794.77
2023-03-11T17:56:22.124Z,98797.91
2023-03-11T17:58:52.444Z,98792.30
2023-03-11T18:01:23.713Z,98779.49
2023-03-11T18:03:56.151Z,98778.85
2023-03-11T18:06:24.878Z,98781.73
2023-03-11T18:08:55.348Z,98787.48
2023-03-11T18:11:26.609Z,98776.01
2023-03-11T18:13:55.182Z,98772.61
2023-03-11T18:16:28.987Z,98775.23
2023-03-11T18:18:57.707Z,98768.75
2023-03-11T18:21:32.253Z,98766.34
2023-03-11T18:24:07.131Z,98761.95
2023-03-11T18:26:36.742Z,98748.83
2023-03-11T18:29:06.147Z,98749.27
2023-03-11T18:31:34.924Z,98740.27
2023-03-11T18:34:05.183Z,98736.85
2023-03-11T18:36:34.669Z,98745.68
2023-03-11T18:39:11.531Z,98749.58
2023-03-11T18:41:43.204Z,98745.13
2023-03-11T18:44:16.464Z,98745.52
2023-03-11T18:46:46.116Z,98745.94
2023-03-11T18:49:14.591Z,98741.89
2023-03-11T18:51:43.888Z,98740.79
2023-03-11T18:54:12.989Z,98740.31
2023-03-11T18:56:42.867Z,98742.72
2023-03-11T18:59:12.451Z,98738.90
2023-03-11T19:01:42.081Z,98747.20
2023-03-11T19:04:10.751Z,98743.64
2023-03-11T19:06:39.333Z,98733.95
2023-03-11T19:09:08.363Z,98735.98
2023-03-11T19:11:38.454Z,98733.03
2023-03-11T19:14:07.407Z,98739.03
2023-03-11T19:16:36.006Z,98746.21
2023-03-11T19:19:06.080Z,98734.84
2023-03-11T19:21:38.709Z,98728.73
2023-03-11T19:24:26.045Z,98727.59
2023-03-11T19:26:54.940Z,98722.61
2023-03-11T19:29:27.155Z,98721.72
2023-03-11T19:31:56.729Z,98721.77
2023-03-11T19:34:27.355Z,98713.82
2023-03-11T19:36:56.670Z,98714.91
2023-03-11T19:39:25.629Z,98712.17
2023-03-11T19:41:55.670Z,98710.95
2023-03-11T19:44:30.517Z,98699.34
2023-03-11T19:46:59.015Z,98695.89
2023-03-11T19:49:30.408Z,98690.73
2023-03-11T19:51:59.423Z,98688.60
2023-03-11T19:54:28.675Z,98693.98
2023-03-11T19:57:00.686Z,98685.84
2023-03-11T19:59:30.946Z,98682.16
2023-03-11T20:01:59.972Z,98679.57
2023-03-11T20:04:31.218Z,98683.13
2023-03-11T20:06:59.876Z,98677.69
2023-03-11T20:09:28.898Z,98678.17
2023-03-11T20:11:57.714Z,98680.39
2023-03-11T20:14:28.237Z,98681.09
2023-03-11T20:16:56.878Z,98681.70
2023-03-11T20:19:25.963Z,98679.21
2023-03-11T20:21:54.871Z,98690.19
2023-03-11T20:24:26.733Z,98693.05
2023-03-11T20:26:57.174Z,98704.93
2023-03-11T20:29:25.755Z,98706.39
2023-03-11T20:31:55.415Z,98708.90
2023-03-11T20:34:24.283Z,98694.64
2023-03-11T20:36:57.254Z,98699.67
2023-03-11T20:39:28.529Z,98705.25
2023-03-11T20:41:57.075Z,98701.41
2023-03-11T20:44:25.716Z,98703.81
2023-03-11T20:46:55.169Z,98704.08
2023-03-11T20:49:30.363Z,98693.84
2023-03-11T20:51:59.090Z,98692.67
2023-03-11T20:54:28.449Z,98693.49
2023-03-11T20:57:00.157Z,98697.46
2023-03-11T20:59:29.578Z,98692.21
2023-03-11T21:02:02.566Z,98681.69
2023-03-11T21:04:31.313Z,98668.23
2023-03-11T21:07:06.701Z,98665.72
2023-03-11T21:09:36.508Z,98669.23
2023-03-11T21:12:05.598Z,98669.70
2023-03-11T21:19:43.856Z,98668.67
2023-03-11T21:22:15.678Z,98669.88
2023-03-11T21:24:46.328Z,98648.87
2023-03-11T21:27:16.259Z,98638.98
2023-03-11T21:29:49.801Z,98647.48
2023-03-11T21:36:22.239Z,98648.42
2023-03-11T21:39:03.336Z,98642.98
2023-03-11T21:45:21.271Z,98642.35
2023-03-11T21:49:02.634Z,98650.75
2023-03-11T21:51:31.420Z,98648.96
2023-03-11T21:54:00.044Z,98647.25
2023-03-11T21:56:30.438Z,98649.57
2023-03-11T21:58:59.244Z,98655.27
2023-03-11T22:01:29.046Z,98648.80
2023-03-11T22:03:57.884Z,98646.02
2023-03-11T22:06:26.560Z,98651.09
2023-03-11T22:09:02.002Z,98651.42
2023-03-11T22:11:31.931Z,98651.04
2023-03-11T22:14:01.521Z,98652.11
2023-03-11T22:16:30.833Z,98645.91
2023-03-11T22:19:00.516Z,98646.21
2023-03-11T22:21:30.702Z,98651.34
2023-03-11T22:23:59.465Z,98641.23
2023-03-11T22:30:20.129Z,98631.75
2023-03-11T22:33:45.667Z,98626.67
2023-03-11T22:36:34.229Z,98623.77
2023-03-11T22:42:16.322Z,98625.45
2023-03-11T22:44:48.638Z,98626.60
2023-03-11T22:47:17.432Z,98619.52
2023-03-11T22:49:46.968Z,98604.30
2023-03-11T22:52:46.468Z,98604.09
2023-03-11T22:55:24.796Z,98599.22
2023-03-11T22:57:58.983Z,98591.39
2023-03-11T23:00:29.113Z,98593.35
2023-03-11T23:02:57.990Z,98578.65
2023-03-11T23:05:27.345Z,98572.75
2023-03-11T23:07:56.118Z,98570.19
2023-03-11T23:10:29.296Z,98567.52
2023-03-11T23:12:57.941Z,98570.48
2023-03-11T23:15:26.674Z,98563.19
2023-03-11T23:18:02.459Z,98560.48
2023-03-11T23:20:37.351Z,98544.35
2023-03-11T23:23:08.939Z,98535.99
2023-03-11T23:25:41.338Z,98538.29
2023-03-11T23:28:17.322Z,98528.69
2023-03-11T23:30:46.690Z,98530.41
2023-03-11T23:33:24.596Z,98532.98
2023-03-11T23:35:56.070Z,98542.23
2023-03-11T23:38:32.827Z,98529.35
2023-03-11T23:41:10.965Z,98523.91
2023-03-11T23:43:42.603Z,98507.85
2023-03-11T23:46:32.549Z,98497.62
2023-03-11T23:49:02.751Z,98491.46
2023-03-11T23:51:34.943Z,98487.84
2023-03-11T23:54:08.192Z,98486.32
2023-03-11T23:56:39.334Z,98491.23
2023-03-11T23:59:08.717Z,98483.19
